createdAt,value
2019-03-09T00:02:03.968Z,58.30
2019-03-09T00:04:33.790Z,58.30
2019-03-09T00:07:03.916Z,58.20
2019-03-09T00:09:33.742Z,58.20
2019-03-09T00:12:04.396Z,58.30
2019-03-09T00:14:34.186Z,58.30
2019-03-09T00:17:04.719Z,58.20
2019-03-09T00:19:35.064Z,58.30
2019-03-09T00:22:05.990Z,58.20
2019-03-09T00:24:51.585Z,58.20
2019-03-09T00:27:40.898Z,58.20
2019-03-09T00:30:33.293Z,58.20
2019-03-09T00:33:03.787Z,58.10
2019-03-09T00:35:34.830Z,58.10
2019-03-09T00:38:05.127Z,58.10
2019-03-09T00:40:34.913Z,58.10
2019-03-09T00:43:05.164Z,58.10
2019-03-09T00:45:36.772Z,58.10
2019-03-09T00:48:06.615Z,58.10
2019-03-09T00:50:37.647Z,58.10
2019-03-09T00:53:07.738Z,58.10
2019-03-09T00:55:37.573Z,58.10
2019-03-09T00:58:07.824Z,58.10
2019-03-09T01:00:38.290Z,58.10
2019-03-09T01:03:09.039Z,58.10
2019-03-09T01:05:39.737Z,58.10
2019-03-09T01:08:10.801Z,58.10
2019-03-09T01:10:40.575Z,58.10
2019-03-09T01:13:10.780Z,58.10
2019-03-09T01:15:41.101Z,58.10
2019-03-09T01:18:11.111Z,58.10
2019-03-09T01:20:41.328Z,58.10
2019-03-09T01:23:11.750Z,58.10
2019-03-09T01:25:41.522Z,58.10
2019-03-09T01:28:11.834Z,58.10
2019-03-09T01:30:41.921Z,58.10
2019-03-09T01:33:12.460Z,58.10
2019-03-09T01:35:42.788Z,57.90
2019-03-09T01:38:13.418Z,58.10
2019-03-09T01:40:43.395Z,58.10
2019-03-09T01:43:13.296Z,58.10
2019-03-09T01:45:44.063Z,58.10
2019-03-09T01:48:15.611Z,58.10
2019-03-09T01:50:45.833Z,58.10
2019-03-09T01:53:16.764Z,58.10
2019-03-09T01:55:46.601Z,58.10
2019-03-09T01:58:16.431Z,58.10
2019-03-09T02:00:47.411Z,58.10
2019-03-09T02:03:18.336Z,58.10
2019-03-09T02:05:48.492Z,58.10
2019-03-09T02:08:18.979Z,58.00
2019-03-09T02:10:48.876Z,58.00
2019-03-09T02:13:19.092Z,58.00
2019-03-09T02:15:48.885Z,58.00
2019-03-09T02:18:19.233Z,58.10
2019-03-09T02:20:49.624Z,58.10
2019-03-09T02:23:19.791Z,58.10
2019-03-09T02:25:50.495Z,58.10
2019-03-09T02:28:20.345Z,58.00
2019-03-09T02:30:50.135Z,58.10
2019-03-09T02:33:20.368Z,58.10
2019-03-09T02:35:50.769Z,58.60
2019-03-09T02:38:30.583Z,58.00
2019-03-09T02:41:00.458Z,58.00
2019-03-09T02:43:30.687Z,58.00
2019-03-09T02:46:01.499Z,58.00
2019-03-09T02:48:31.617Z,58.70
2019-03-09T02:51:02.565Z,58.10
2019-03-09T02:53:32.441Z,58.20
2019-03-09T02:56:02.703Z,58.10
2019-03-09T02:58:32.870Z,58.10
2019-03-09T03:01:23.767Z,58.10
2019-03-09T03:03:54.064Z,58.10
2019-03-09T03:06:24.782Z,58.10
2019-03-09T03:08:56.040Z,58.10
2019-03-09T03:11:26.022Z,58.10
2019-03-09T03:13:56.574Z,58.10
2019-03-09T03:16:26.897Z,58.10
2019-03-09T03:18:56.724Z,58.10
2019-03-09T03:21:26.807Z,58.10
2019-03-09T03:23:57.608Z,58.00
2019-03-09T03:26:28.432Z,57.90
2019-03-09T03:28:58.489Z,58.10
2019-03-09T03:31:28.954Z,58.10
2019-03-09T03:33:59.380Z,58.00
2019-03-09T03:36:29.373Z,58.00
2019-03-09T03:39:00.164Z,58.00
2019-03-09T03:41:30.165Z,58.10
2019-03-09T03:44:00.328Z,58.20
2019-03-09T03:46:30.926Z,58.00
2019-03-09T03:49:00.797Z,58.00
2019-03-09T03:51:30.736Z,58.10
2019-03-09T03:54:01.082Z,58.10
2019-03-09T03:56:31.437Z,58.10
2019-03-09T03:59:02.296Z,58.00
2019-03-09T04:01:32.911Z,58.00
2019-03-09T04:04:02.683Z,58.10
2019-03-09T04:06:32.517Z,58.00
2019-03-09T04:09:04.541Z,58.10
2019-03-09T04:11:34.434Z,58.10
2019-03-09T04:14:04.228Z,58.10
2019-03-09T04:16:34.614Z,58.10
2019-03-09T04:19:04.372Z,58.10
2019-03-09T04:21:34.597Z,58.10
2019-03-09T04:24:05.635Z,58.20
2019-03-09T04:26:35.702Z,58.20
2019-03-09T04:29:05.499Z,58.40
2019-03-09T04:31:37.427Z,58.30
2019-03-09T04:34:07.710Z,58.30
2019-03-09T04:36:38.124Z,58.40
2019-03-09T04:39:08.432Z,58.40
2019-03-09T04:41:38.666Z,58.40
2019-03-09T04:44:09.455Z,58.50
2019-03-09T04:46:39.442Z,58.50
2019-03-09T04:49:09.415Z,58.60
2019-03-09T04:51:39.926Z,58.60
2019-03-09T04:54:09.702Z,58.60
2019-03-09T04:56:39.527Z,58.60
2019-03-09T04:59:09.804Z,58.70
2019-03-09T05:01:40.751Z,58.80
2019-03-09T05:04:48.505Z,58.90
2019-03-09T05:07:35.046Z,58.80
2019-03-09T05:10:18.644Z,58.90
2019-03-09T05:12:50.989Z,58.90
2019-03-09T05:15:21.786Z,58.90
2019-03-09T05:17:51.785Z,59.00
2019-03-09T05:20:22.550Z,59.00
2019-03-09T05:22:52.812Z,59.00
2019-03-09T05:25:23.160Z,59.20
2019-03-09T05:27:53.440Z,59.20
2019-03-09T05:30:43.314Z,59.20
2019-03-09T05:33:13.099Z,59.10
2019-03-09T05:35:42.928Z,59.20
2019-03-09T05:38:12.731Z,59.30
2019-03-09T05:40:43.343Z,59.50
2019-03-09T05:43:13.638Z,59.40
2019-03-09T05:45:45.157Z,59.40
2019-03-09T05:48:14.935Z,59.50
2019-03-09T05:50:45.690Z,59.50
2019-03-09T05:53:18.259Z,59.70
2019-03-09T05:55:48.457Z,59.60
2019-03-09T05:58:18.461Z,59.60
2019-03-09T06:00:48.858Z,59.80
2019-03-09T06:03:20.601Z,59.80
2019-03-09T06:06:10.742Z,59.90
2019-03-09T06:08:40.632Z,60.00
2019-03-09T06:11:11.094Z,60.20
2019-03-09T06:13:41.150Z,60.00
2019-03-09T06:16:10.978Z,60.50
2019-03-09T06:18:41.461Z,61.00
2019-03-09T06:21:11.297Z,60.60
2019-03-09T06:23:41.477Z,60.70
2019-03-09T06:26:11.324Z,60.80
2019-03-09T06:28:42.831Z,61.10
2019-03-09T06:31:12.652Z,61.00
2019-03-09T06:33:44.813Z,61.50
2019-03-09T06:36:49.546Z,61.60
2019-03-09T06:39:21.696Z,61.70
2019-03-09T06:42:28.097Z,61.80
2019-03-09T06:44:58.952Z,61.50
2019-03-09T06:47:28.768Z,61.70
2019-03-09T06:49:59.122Z,61.70
2019-03-09T06:52:29.690Z,62.60
2019-03-09T06:54:59.486Z,62.10
2019-03-09T06:57:29.702Z,62.30
2019-03-09T07:00:00.398Z,62.00
2019-03-09T07:02:30.750Z,62.30
2019-03-09T07:05:00.851Z,62.80
2019-03-09T07:07:32.127Z,62.60
2019-03-09T07:10:02.894Z,62.70
2019-03-09T07:12:33.267Z,62.50
2019-03-09T07:15:24.250Z,62.70
2019-03-09T07:18:00.469Z,63.00
2019-03-09T07:20:30.835Z,63.60
2019-03-09T07:23:01.068Z,63.10
2019-03-09T07:25:31.263Z,63.90
2019-03-09T07:28:04.057Z,63.60
2019-03-09T07:30:33.973Z,65.00
2019-03-09T07:33:04.236Z,63.40
2019-03-09T07:35:34.444Z,63.40
2019-03-09T07:38:05.203Z,63.80
2019-03-09T07:40:35.599Z,63.90
2019-03-09T07:43:05.450Z,64.00
2019-03-09T07:45:35.224Z,63.60
2019-03-09T07:48:05.793Z,64.50
2019-03-09T07:50:36.394Z,63.80
2019-03-09T07:53:06.965Z,63.80
2019-03-09T07:55:37.127Z,63.60
2019-03-09T07:58:08.020Z,64.10
2019-03-09T08:00:38.179Z,63.90
2019-03-09T08:03:08.756Z,64.10
2019-03-09T08:05:38.661Z,63.60
2019-03-09T08:08:10.168Z,64.10
2019-03-09T08:10:41.573Z,63.80
2019-03-09T08:13:13.581Z,64.30
2019-03-09T08:15:43.800Z,64.50
2019-03-09T08:18:14.656Z,64.10
2019-03-09T08:20:45.145Z,64.30
2019-03-09T08:23:14.987Z,64.00
2019-03-09T08:25:45.401Z,64.00
2019-03-09T08:28:16.624Z,64.30
2019-03-09T08:30:46.526Z,64.20
2019-03-09T08:33:17.431Z,64.50
2019-03-09T08:35:48.222Z,64.20
2019-03-09T08:38:18.234Z,64.60
2019-03-09T08:40:48.598Z,65.10
2019-03-09T08:43:19.444Z,65.10
2019-03-09T08:45:50.259Z,64.70
2019-03-09T08:48:20.751Z,64.60
2019-03-09T08:50:50.975Z,64.60
2019-03-09T08:53:20.839Z,64.50
2019-03-09T08:55:52.081Z,64.30
2019-03-09T08:58:22.301Z,64.60
2019-03-09T09:00:52.575Z,64.80
2019-03-09T09:03:23.050Z,64.60
2019-03-09T09:05:52.830Z,64.60
2019-03-09T09:08:22.753Z,64.60
2019-03-09T09:10:53.055Z,65.30
2019-03-09T09:13:23.696Z,65.80
2019-03-09T09:15:53.455Z,65.30
2019-03-09T09:18:23.493Z,65.00
2019-03-09T09:20:53.731Z,64.80
2019-03-09T09:23:23.562Z,65.50
2019-03-09T09:25:53.668Z,66.50
2019-03-09T09:28:24.322Z,65.80
2019-03-09T09:30:54.610Z,65.40
2019-03-09T09:33:24.455Z,65.30
2019-03-09T09:35:55.665Z,65.50
2019-03-09T09:38:26.143Z,65.20
2019-03-09T09:40:56.437Z,65.70
2019-03-09T09:43:27.088Z,65.50
2019-03-09T09:45:57.742Z,65.50
2019-03-09T09:48:27.590Z,65.30
2019-03-09T09:50:58.044Z,65.50
2019-03-09T09:53:28.633Z,65.30
2019-03-09T09:55:58.381Z,65.30
2019-03-09T09:58:30.398Z,65.30
2019-03-09T10:01:00.535Z,65.70
2019-03-09T10:03:30.735Z,65.40
2019-03-09T10:06:01.102Z,65.10
2019-03-09T10:08:30.917Z,65.40
2019-03-09T10:11:02.030Z,65.20
2019-03-09T10:13:31.896Z,65.10
2019-03-09T10:16:03.303Z,65.20
2019-03-09T10:18:33.732Z,65.10
2019-03-09T10:21:03.651Z,65.10
2019-03-09T10:23:33.497Z,65.10
2019-03-09T10:26:04.182Z,65.50
2019-03-09T10:28:34.031Z,65.20
2019-03-09T10:31:05.101Z,65.20
2019-03-09T10:33:35.307Z,65.00
2019-03-09T10:36:06.510Z,64.80
2019-03-09T10:38:36.345Z,64.90
2019-03-09T10:41:07.104Z,64.80
2019-03-09T10:43:37.243Z,64.60
2019-03-09T10:46:07.205Z,65.00
2019-03-09T10:48:37.090Z,64.80
2019-03-09T10:51:06.906Z,64.80
2019-03-09T10:53:37.016Z,64.80
2019-03-09T10:56:07.901Z,64.80
2019-03-09T10:58:38.144Z,64.90
2019-03-09T11:01:10.035Z,64.80
2019-03-09T11:03:39.979Z,64.70
2019-03-09T11:06:09.836Z,64.60
2019-03-09T11:08:39.985Z,64.50
2019-03-09T11:11:10.453Z,64.60
2019-03-09T11:13:51.165Z,64.30
2019-03-09T11:16:13.482Z,64.20
2019-03-09T11:18:44.324Z,64.20
2019-03-09T11:21:14.727Z,64.10
2019-03-09T11:23:44.856Z,64.00
2019-03-09T11:26:16.010Z,64.20
2019-03-09T11:28:45.909Z,64.20
2019-03-09T11:31:16.426Z,64.10
2019-03-09T11:33:46.341Z,64.10
2019-03-09T11:36:16.712Z,63.50
2019-03-09T11:38:46.774Z,64.10
2019-03-09T11:41:19.347Z,64.10
2019-03-09T11:43:50.282Z,64.40
2019-03-09T11:46:20.442Z,64.20
2019-03-09T11:48:50.596Z,64.20
2019-03-09T11:51:20.441Z,64.20
2019-03-09T11:53:50.566Z,64.20
2019-03-09T11:56:21.976Z,64.00
2019-03-09T11:58:51.776Z,64.00
2019-03-09T12:01:22.195Z,63.90
2019-03-09T12:03:52.834Z,63.90
2019-03-09T12:06:23.424Z,63.80
2019-03-09T12:08:53.652Z,64.80
2019-03-09T12:11:24.457Z,63.70
2019-03-09T12:13:55.953Z,63.60
2019-03-09T12:16:25.832Z,63.60
2019-03-09T12:18:56.229Z,63.40
2019-03-09T12:21:26.711Z,63.60
2019-03-09T12:23:57.070Z,63.60
2019-03-09T12:26:29.870Z,63.80
2019-03-09T12:28:59.592Z,63.80
2019-03-09T12:31:29.908Z,63.40
2019-03-09T12:34:00.234Z,62.50
2019-03-09T12:36:30.218Z,62.50
2019-03-09T12:39:00.047Z,62.30
2019-03-09T12:41:30.804Z,62.00
2019-03-09T12:44:00.612Z,61.90
2019-03-09T12:46:31.037Z,61.90
2019-03-09T12:49:01.028Z,61.70
2019-03-09T12:51:31.995Z,61.50
2019-03-09T12:54:02.679Z,61.10
2019-03-09T12:56:33.125Z,60.80
2019-03-09T12:59:03.538Z,60.10
2019-03-09T13:01:33.794Z,60.10
2019-03-09T13:04:04.163Z,59.80
2019-03-09T13:06:34.219Z,59.90
2019-03-09T13:09:05.100Z,59.50
2019-03-09T13:11:36.007Z,59.60
2019-03-09T13:14:06.021Z,59.70
2019-03-09T13:29:19.053Z,58.30
2019-03-09T13:31:49.157Z,60.00
2019-03-09T13:34:18.776Z,59.60
2019-03-09T13:36:48.399Z,59.40
2019-03-09T13:39:18.430Z,59.40
2019-03-09T13:41:48.077Z,59.30
2019-03-09T13:44:17.666Z,59.30
2019-03-09T13:46:47.289Z,59.40
2019-03-09T13:49:17.233Z,59.50
2019-03-09T13:51:47.337Z,59.70
2019-03-09T13:54:17.405Z,59.90
2019-03-09T13:56:47.999Z,60.00
2019-03-09T13:59:18.007Z,60.00
2019-03-09T14:01:48.085Z,60.10
2019-03-09T14:04:17.673Z,60.20
2019-03-09T14:06:48.165Z,60.30
2019-03-09T14:09:18.763Z,60.40
2019-03-09T14:11:48.814Z,60.50
2019-03-09T14:14:19.561Z,60.60
2019-03-09T14:16:49.201Z,60.60
2019-03-09T14:19:18.793Z,60.70
2019-03-09T14:21:48.423Z,60.80
2019-03-09T14:24:18.007Z,60.90
2019-03-09T14:26:48.221Z,61.00
2019-03-09T14:29:17.814Z,61.10
2019-03-09T14:31:47.813Z,61.20
2019-03-09T14:34:17.424Z,61.20
2019-03-09T14:36:48.010Z,61.20
2019-03-09T14:39:17.595Z,61.20
2019-03-09T14:41:48.464Z,61.30
2019-03-09T14:44:18.050Z,61.30
2019-03-09T14:46:47.678Z,61.40
2019-03-09T14:49:17.270Z,61.50
2019-03-09T14:51:47.454Z,61.40
2019-03-09T14:54:17.062Z,61.50
2019-03-09T14:56:46.702Z,61.40
2019-03-09T14:59:16.300Z,61.30
2019-03-09T15:01:45.983Z,61.50
2019-03-09T15:04:16.147Z,61.60
2019-03-09T15:06:46.174Z,61.90
2019-03-09T15:09:16.189Z,61.90
2019-03-09T15:11:45.848Z,62.20
2019-03-09T15:14:15.451Z,62.30
2019-03-09T15:16:45.070Z,62.30
2019-03-09T15:19:15.110Z,62.40
2019-03-09T15:21:44.697Z,62.40
2019-03-09T15:24:14.718Z,62.60
2019-03-09T15:26:44.297Z,62.90
2019-03-09T15:29:14.316Z,63.20
2019-03-09T15:31:44.269Z,63.50
2019-03-09T15:34:14.237Z,64.00
2019-03-09T15:36:43.813Z,65.00
2019-03-09T15:39:13.451Z,63.90
2019-03-09T15:41:43.633Z,63.60
2019-03-09T15:44:13.214Z,63.20
2019-03-09T15:46:43.242Z,63.10
2019-03-09T15:49:12.951Z,62.80
2019-03-09T15:51:43.451Z,63.50
2019-03-09T15:54:13.069Z,62.40
2019-03-09T15:56:43.545Z,61.90
2019-03-09T15:59:13.578Z,61.60
2019-03-09T16:01:43.697Z,61.40
2019-03-09T16:04:13.274Z,61.20
2019-03-09T16:06:42.909Z,61.10
2019-03-09T16:09:14.134Z,61.10
2019-03-09T16:11:44.824Z,61.10
2019-03-09T16:14:14.947Z,61.00
2019-03-09T16:16:45.112Z,61.10
2019-03-09T16:19:14.754Z,61.10
2019-03-09T16:21:44.422Z,61.00
2019-03-09T16:24:14.444Z,61.00
2019-03-09T16:26:45.236Z,61.00
2019-03-09T16:29:15.342Z,61.00
2019-03-09T16:31:44.966Z,61.10
2019-03-09T16:34:15.161Z,61.30
2019-03-09T16:36:45.277Z,61.30
2019-03-09T16:39:14.865Z,61.30
2019-03-09T16:41:44.506Z,61.30
2019-03-09T16:44:14.077Z,61.50
2019-03-09T16:46:44.772Z,61.50
2019-03-09T16:49:14.857Z,61.50
2019-03-09T16:51:44.969Z,61.70
2019-03-09T16:54:14.992Z,61.70
2019-03-09T16:56:45.525Z,61.70
2019-03-09T16:59:15.109Z,61.70
2019-03-09T17:01:44.744Z,61.70
2019-03-09T17:04:14.345Z,61.70
2019-03-09T17:06:44.003Z,61.70
2019-03-09T17:09:14.109Z,61.70
2019-03-09T17:11:44.030Z,61.70
2019-03-09T17:14:13.607Z,61.50
2019-03-09T17:16:43.747Z,61.60
2019-03-09T17:19:14.187Z,61.50
2019-03-09T17:21:43.948Z,61.40
2019-03-09T17:24:13.601Z,61.50
2019-03-09T17:26:43.831Z,61.40
2019-03-09T17:29:14.414Z,61.40
2019-03-09T17:31:44.639Z,61.10
2019-03-09T17:34:15.006Z,61.20
2019-03-09T17:36:44.841Z,61.00
2019-03-09T17:39:14.819Z,61.10
2019-03-09T17:41:44.941Z,61.00
2019-03-09T17:44:15.741Z,61.00
2019-03-09T17:46:45.399Z,61.00
2019-03-09T17:49:14.991Z,61.00
2019-03-09T17:51:45.197Z,60.90
2019-03-09T17:54:15.701Z,60.80
2019-03-09T17:56:45.337Z,60.80
2019-03-09T17:59:15.425Z,60.80
2019-03-09T18:01:45.056Z,60.80
2019-03-09T18:04:14.685Z,60.90
2019-03-09T18:06:44.284Z,60.80
2019-03-09T18:09:14.471Z,60.80
2019-03-09T18:11:44.795Z,60.60
2019-03-09T18:14:14.990Z,60.60
2019-03-09T18:16:52.445Z,60.50
2019-03-09T18:19:16.699Z,60.60
2019-03-09T18:21:46.656Z,60.60
2019-03-09T18:24:17.466Z,60.40
2019-03-09T18:26:47.085Z,60.40
2019-03-09T18:29:16.782Z,60.20
2019-03-09T18:31:47.458Z,60.30
2019-03-09T18:34:17.086Z,60.40
2019-03-09T18:36:47.166Z,60.40
2019-03-09T18:39:16.906Z,60.40
2019-03-09T18:41:46.490Z,60.30
2019-03-09T18:44:16.113Z,60.30
2019-03-09T18:46:46.150Z,60.40
2019-03-09T18:49:16.623Z,60.20
2019-03-09T18:51:47.139Z,60.20
2019-03-09T18:54:17.246Z,60.00
2019-03-09T18:56:47.345Z,60.00
2019-03-09T18:59:17.427Z,59.90
2019-03-09T19:01:47.515Z,59.80
2019-03-09T19:04:17.587Z,59.80
2019-03-09T19:06:47.190Z,59.90
2019-03-09T19:09:16.889Z,59.70
2019-03-09T19:11:46.494Z,59.80
2019-03-09T19:14:16.614Z,59.80
2019-03-09T19:16:49.435Z,59.60
2019-03-09T19:19:19.974Z,59.60
2019-03-09T19:21:49.966Z,59.50
2019-03-09T19:24:19.627Z,59.40
2019-03-09T19:26:49.294Z,59.20
2019-03-09T19:29:21.398Z,59.10
2019-03-09T19:31:51.100Z,59.10
2019-03-09T19:34:21.343Z,59.00
2019-03-09T19:36:50.933Z,59.60
2019-03-09T19:39:21.414Z,58.80
2019-03-09T19:41:51.473Z,59.00
2019-03-09T19:44:21.110Z,59.00
2019-03-09T19:46:50.705Z,59.10
2019-03-09T19:49:20.414Z,59.00
2019-03-09T19:51:50.068Z,58.90
2019-03-09T19:54:20.686Z,58.80
2019-03-09T19:56:50.279Z,58.80
2019-03-09T19:59:19.938Z,58.50
2019-03-09T20:01:50.285Z,58.40
2019-03-09T20:04:20.534Z,58.40
2019-03-09T20:06:50.121Z,58.30
2019-03-09T20:09:19.789Z,58.30
2019-03-09T20:11:49.441Z,58.20
2019-03-09T20:14:19.609Z,58.00
2019-03-09T20:16:49.619Z,58.10
2019-03-09T20:19:20.044Z,58.10
2019-03-09T20:21:50.118Z,58.10
2019-03-09T20:24:20.299Z,58.20
2019-03-09T20:26:49.869Z,58.10
2019-03-09T20:29:19.877Z,57.80
2019-03-09T20:31:49.487Z,58.00
2019-03-09T20:34:20.172Z,58.10
2019-03-09T20:36:50.175Z,58.10
2019-03-09T20:39:20.524Z,58.10
2019-03-09T20:41:50.781Z,58.00
2019-03-09T20:44:20.465Z,58.00
2019-03-09T20:46:50.535Z,58.20
2019-03-09T20:49:20.188Z,58.00
2019-03-09T20:51:50.748Z,58.10
2019-03-09T20:54:20.762Z,58.30
2019-03-09T20:56:50.506Z,58.20
2019-03-09T20:59:20.520Z,58.20
2019-03-09T21:01:50.164Z,58.30
2019-03-09T21:04:19.811Z,58.30
2019-03-09T21:06:49.906Z,58.40
2019-03-09T21:09:19.929Z,58.30
2019-03-09T21:11:49.688Z,58.50
2019-03-09T21:14:19.313Z,58.60
2019-03-09T21:16:49.413Z,58.80
2019-03-09T21:19:19.490Z,58.90
2019-03-09T21:21:49.481Z,59.00
2019-03-09T21:24:19.086Z,59.00
2019-03-09T21:26:48.763Z,59.30
2019-03-09T21:29:19.254Z,59.40
2019-03-09T21:31:49.389Z,59.90
2019-03-09T21:34:19.034Z,59.70
2019-03-09T21:36:49.180Z,59.90
2019-03-09T21:39:19.877Z,60.00
2019-03-09T21:41:49.878Z,60.20
2019-03-09T21:44:20.449Z,60.30
2019-03-09T21:46:50.082Z,60.50
2019-03-09T21:49:19.702Z,60.60
2019-03-09T21:51:49.379Z,61.00
2019-03-09T21:54:19.464Z,61.10
2019-03-09T21:56:49.486Z,61.50
2019-03-09T21:59:21.016Z,61.60
2019-03-09T22:01:50.661Z,61.70
2019-03-09T22:04:20.582Z,61.80
2019-03-09T22:06:50.226Z,61.80
2019-03-09T22:09:19.826Z,61.80
2019-03-09T22:11:49.471Z,61.90
2019-03-09T22:14:19.526Z,62.00
2019-03-09T22:16:56.311Z,62.10
2019-03-09T22:19:20.410Z,62.50
2019-03-09T22:21:50.459Z,62.30
2019-03-09T22:24:20.074Z,62.50
2019-03-09T22:26:50.106Z,62.80
2019-03-09T22:29:20.166Z,62.80
2019-03-09T22:31:50.168Z,62.90
2019-03-09T22:34:21.007Z,63.00
2019-03-09T22:36:50.629Z,63.10
2019-03-09T22:39:20.225Z,63.10
2019-03-09T22:41:49.868Z,63.30
2019-03-09T22:44:19.763Z,63.70
2019-03-09T22:46:49.393Z,63.30
2019-03-09T22:49:19.484Z,63.30
2019-03-09T22:51:49.109Z,63.40
2019-03-09T22:54:18.679Z,63.60
2019-03-09T22:56:48.344Z,63.50
2019-03-09T22:59:18.249Z,63.60
2019-03-09T23:01:47.883Z,63.70
2019-03-09T23:04:22.236Z,63.80
2019-03-09T23:06:52.565Z,63.60
2019-03-09T23:09:22.633Z,63.50
2019-03-09T23:11:52.265Z,63.70
2019-03-09T23:14:22.313Z,63.80
2019-03-09T23:16:52.301Z,63.80
2019-03-09T23:19:21.902Z,63.50
2019-03-09T23:21:52.034Z,63.40
2019-03-09T23:24:21.628Z,63.40
2019-03-09T23:26:51.257Z,63.50
2019-03-09T23:29:21.923Z,63.40
2019-03-09T23:31:51.546Z,63.40
2019-03-09T23:34:21.734Z,63.20
2019-03-09T23:36:52.125Z,63.30
2019-03-09T23:39:21.724Z,63.30
2019-03-09T23:41:51.353Z,63.30
2019-03-09T23:44:21.882Z,63.20
2019-03-09T23:46:51.901Z,63.30
2019-03-09T23:49:22.269Z,63.50
2019-03-09T23:51:52.315Z,63.30
2019-03-09T23:54:21.902Z,63.20
2019-03-09T23:56:52.064Z,63.30
2019-03-09T23:59:22.806Z,63.30
